Time;durP1;ratioP1;P1;durP2;ratioP2;P2;SDS_P1;SDS_P2;PMS_P1;PMS_P2;Temp;Humidity;BMP_temperature;BMP_pressure;BME280_temperature;BME280_humidity;BME280_pressure;Samples;Min_cycle;Max_cycle;Signal;HPM_P1;HPM_P2
2023/01/07 00:01:35;;;;;;;;;;;;;;;16.86;65.76;100734.59;7249877;19;154997;-59
2023/01/07 00:04:03;;;;;;;;;;;;;;;16.92;65.90;100724.25;7248549;19;154943;-59
2023/01/07 00:06:32;;;;;;;;;;;;;;;16.98;65.51;100719.47;7246764;19;154469;-59
2023/01/07 00:08:59;;;;;;;;;;;;;;;17.06;65.63;100714.09;7248278;19;152883;-58
2023/01/07 00:11:28;;;;;;;;;;;;;;;17.13;65.64;100714.59;7246011;19;154577;-58
2023/01/07 00:13:56;;;;;;;;;;;;;;;17.20;65.78;100714.28;7258183;19;153640;-59
2023/01/07 00:16:24;;;;;;;;;;;;;;;17.27;66.14;100707.22;7254400;19;154547;-58
2023/01/07 00:18:52;;;;;;;;;;;;;;;17.34;65.58;100707.72;7256400;19;153980;-58
2023/01/07 00:21:20;;;;;;;;;;;;;;;17.42;65.68;100706.25;7253147;19;155144;-59
2023/01/07 00:23:48;;;;;;;;;;;;;;;17.47;65.50;100697.84;7256270;19;153819;-59
2023/01/07 00:26:17;;;;;;;;;;;;;;;17.54;65.14;100692.72;7256428;19;153271;-59
2023/01/07 00:28:47;;;;;;;;;;;;;;;17.60;64.91;100687.97;7257477;19;156051;-59
2023/01/07 00:31:15;;;;;;;;;;;;;;;17.66;65.33;100701.59;7254682;19;154818;-59
2023/01/07 00:36:13;;;;;;;;;;;;;;;17.80;65.47;100690.56;7252788;19;153249;-60
2023/01/07 00:38:40;;;;;;;;;;;;;;;17.86;65.51;100675.38;7253918;19;153780;-59
2023/01/07 00:41:08;;;;;;;;;;;;;;;17.93;65.50;100666.66;7256218;19;154484;-59
2023/01/07 00:43:35;;;;;;;;;;;;;;;17.97;65.23;100670.50;7252778;19;154936;-61
2023/01/07 00:46:02;;;;;;;;;;;;;;;18.03;65.22;100658.97;7253808;19;153119;-60
2023/01/07 00:48:29;;;;;;;;;;;;;;;18.10;64.78;100659.44;7252116;19;153656;-60
2023/01/07 00:50:56;;;;;;;;;;;;;;;18.15;64.85;100650.16;7252047;19;155332;-60
2023/01/07 00:53:24;;;;;;;;;;;;;;;18.20;64.75;100648.13;7254014;19;153436;-60
2023/01/07 00:55:51;;;;;;;;;;;;;;;18.27;64.42;100632.91;7262257;19;153464;-60
2023/01/07 00:58:21;;;;;;;;;;;;;;;18.32;64.12;100630.88;7255923;19;153920;-60
2023/01/07 01:00:48;;;;;;;;;;;;;;;18.38;64.30;100626.06;7253782;19;156726;-60
2023/01/07 01:03:15;;;;;;;;;;;;;;;18.44;64.09;100619.28;7254965;19;153254;-60
2023/01/07 01:05:43;;;;;;;;;;;;;;;18.49;64.14;100605.19;7254979;19;153843;-60
2023/01/07 01:08:10;;;;;;;;;;;;;;;18.54;63.71;100603.16;7254165;19;153407;-60
2023/01/07 01:10:37;;;;;;;;;;;;;;;18.58;63.62;100604.22;7253969;19;154978;-60
2023/01/07 01:13:04;;;;;;;;;;;;;;;18.63;63.35;100595.75;7256187;19;153772;-60
2023/01/07 01:15:31;;;;;;;;;;;;;;;18.67;63.16;100595.97;7256222;19;153164;-60
2023/01/07 01:17:58;;;;;;;;;;;;;;;18.71;62.71;100585.84;7261819;19;154962;-60
2023/01/07 01:20:25;;;;;;;;;;;;;;;18.75;62.71;100600.91;7253093;19;153729;-59
2023/01/07 01:22:52;;;;;;;;;;;;;;;18.80;62.61;100586.00;7253591;19;154928;-59
2023/01/07 01:25:19;;;;;;;;;;;;;;;18.83;62.23;100583.41;7252367;19;153224;-60
2023/01/07 01:27:46;;;;;;;;;;;;;;;18.86;61.59;100579.16;7254967;19;154208;-59
2023/01/07 01:30:13;;;;;;;;;;;;;;;18.89;61.33;100593.38;7251926;19;154273;-60
2023/01/07 01:32:41;;;;;;;;;;;;;;;18.92;60.87;100575.97;7252688;19;153676;-60
2023/01/07 01:35:08;;;;;;;;;;;;;;;18.94;60.56;100544.88;7250662;19;154710;-60
2023/01/07 01:37:35;;;;;;;;;;;;;;;18.96;60.41;100563.00;7250718;19;153792;-60
2023/01/07 01:40:03;;;;;;;;;;;;;;;18.99;59.84;100554.00;7261085;19;153963;-60
2023/01/07 01:42:30;;;;;;;;;;;;;;;19.02;59.62;100547.78;7254027;19;155822;-59
2023/01/07 01:44:58;;;;;;;;;;;;;;;19.04;59.64;100542.69;7253351;19;151711;-60
2023/01/07 01:47:29;;;;;;;;;;;;;;;19.06;59.39;100551.63;7253404;19;154818;-60
2023/01/07 01:49:59;;;;;;;;;;;;;;;19.08;59.24;100540.09;7253409;19;154773;-59
2023/01/07 01:52:30;;;;;;;;;;;;;;;19.10;59.43;100535.88;7248464;19;153177;-60
2023/01/07 01:54:59;;;;;;;;;;;;;;;19.13;59.13;100525.19;7253293;19;152798;-60
2023/01/07 01:57:27;;;;;;;;;;;;;;;19.15;59.28;100522.91;7252042;19;152888;-59
2023/01/07 01:59:55;;;;;;;;;;;;;;;19.16;58.97;100522.63;7252475;19;153322;-59
2023/01/07 02:02:27;;;;;;;;;;;;;;;19.16;59.06;100517.00;7259153;19;154144;-60
2023/01/07 02:04:55;;;;;;;;;;;;;;;19.19;59.07;100529.56;7253260;19;152936;-60
2023/01/07 02:07:22;;;;;;;;;;;;;;;19.19;58.70;100518.34;7249584;19;154215;-60
2023/01/07 02:09:57;;;;;;;;;;;;;;;19.19;58.74;100509.94;7251973;19;154510;-60
2023/01/07 02:12:24;;;;;;;;;;;;;;;19.20;58.63;100506.00;7251228;19;153560;-60
2023/01/07 02:14:54;;;;;;;;;;;;;;;19.21;58.55;100508.50;7254223;19;153636;-60
2023/01/07 02:17:22;;;;;;;;;;;;;;;19.21;58.35;100504.88;7251012;19;154906;-59
2023/01/07 02:20:00;;;;;;;;;;;;;;;19.20;58.30;100512.44;7252711;19;152346;-59
2023/01/07 02:22:41;;;;;;;;;;;;;;;19.22;58.71;100503.72;7249475;19;154032;-60
2023/01/07 02:25:11;;;;;;;;;;;;;;;19.22;58.70;100506.53;7258572;19;154718;-60
2023/01/07 02:27:41;;;;;;;;;;;;;;;19.21;58.46;100502.09;7252608;19;152681;-60
2023/01/07 02:30:10;;;;;;;;;;;;;;;19.22;58.38;100486.91;7250285;19;155032;-59
2023/01/07 02:32:38;;;;;;;;;;;;;;;19.21;58.65;100502.91;7247711;19;152829;-59
2023/01/07 02:35:08;;;;;;;;;;;;;;;19.21;58.48;100486.09;7251277;19;153422;-59
2023/01/07 02:37:44;;;;;;;;;;;;;;;19.22;58.76;100484.13;7249950;19;154132;-59
2023/01/07 02:40:14;;;;;;;;;;;;;;;19.21;58.83;100488.06;7251189;19;153674;-59
2023/01/07 02:42:42;;;;;;;;;;;;;;;19.19;58.92;100479.16;7252741;19;153378;-60
2023/01/07 02:45:15;;;;;;;;;;;;;;;19.19;58.95;100470.75;7256154;19;154085;-60
2023/01/07 02:47:46;;;;;;;;;;;;;;;19.18;58.60;100466.28;7252320;19;154018;-60
2023/01/07 02:50:13;;;;;;;;;;;;;;;19.17;58.74;100461.84;7245783;19;154150;-59
2023/01/07 02:52:40;;;;;;;;;;;;;;;19.15;58.67;100461.31;7245490;19;152625;-59
2023/01/07 02:55:10;;;;;;;;;;;;;;;19.13;58.95;100456.00;7246006;19;153968;-60
2023/01/07 02:57:41;;;;;;;;;;;;;;;19.12;58.94;100461.94;7249029;19;154453;-60
2023/01/07 03:00:08;;;;;;;;;;;;;;;19.09;59.18;100457.78;7249815;19;152449;-60
2023/01/07 03:02:38;;;;;;;;;;;;;;;19.05;59.00;100457.56;7252073;19;154845;-60
2023/01/07 03:05:16;;;;;;;;;;;;;;;19.03;59.05;100453.44;7250160;19;154819;-59
2023/01/07 03:07:46;;;;;;;;;;;;;;;19.00;59.37;100443.66;7256076;19;154510;-59
2023/01/07 03:10:16;;;;;;;;;;;;;;;18.98;59.66;100437.56;7242921;19;154173;-60
2023/01/07 03:12:46;;;;;;;;;;;;;;;18.97;59.55;100441.50;7247795;19;154964;-59
2023/01/07 03:15:17;;;;;;;;;;;;;;;18.95;59.87;100429.78;7247780;19;153058;-59
2023/01/07 03:17:48;;;;;;;;;;;;;;;18.95;59.80;100426.13;7250338;19;153840;-59
2023/01/07 03:20:17;;;;;;;;;;;;;;;18.93;59.49;100420.03;7245685;19;153875;-59
2023/01/07 03:22:45;;;;;;;;;;;;;;;18.93;59.58;100415.28;7246775;19;154266;-59
2023/01/07 03:25:13;;;;;;;;;;;;;;;18.90;59.62;100413.06;7249716;19;155145;-59
2023/01/07 03:27:41;;;;;;;;;;;;;;;18.89;60.03;100419.00;7251415;19;153810;-59
2023/01/07 03:30:11;;;;;;;;;;;;;;;18.87;59.95;100405.31;7256098;19;154454;-59
2023/01/07 03:32:41;;;;;;;;;;;;;;;18.86;59.76;100397.22;7249758;19;154017;-59
2023/01/07 03:35:09;;;;;;;;;;;;;;;18.84;60.02;100407.91;7250426;19;154776;-59
2023/01/07 03:37:37;;;;;;;;;;;;;;;18.83;59.98;100400.63;7247154;19;153898;-59
2023/01/07 03:40:08;;;;;;;;;;;;;;;18.81;59.95;100378.56;7245538;19;154386;-60
2023/01/07 03:42:39;;;;;;;;;;;;;;;18.80;59.47;100384.47;7248496;19;154568;-59
2023/01/07 03:45:08;;;;;;;;;;;;;;;18.77;59.90;100385.91;7246510;19;154483;-60
2023/01/07 03:47:36;;;;;;;;;;;;;;;18.75;59.90;100382.59;7247875;19;154310;-59
2023/01/07 03:50:03;;;;;;;;;;;;;;;18.74;59.41;100378.16;7248951;19;154434;-60
2023/01/07 03:52:30;;;;;;;;;;;;;;;18.73;59.79;100375.66;7253103;19;153971;-59
2023/01/07 03:54:57;;;;;;;;;;;;;;;18.72;59.32;100374.81;7250665;19;154543;-59
2023/01/07 03:57:25;;;;;;;;;;;;;;;18.71;59.79;100377.94;7248239;19;155258;-59
2023/01/07 03:59:52;;;;;;;;;;;;;;;18.68;59.52;100373.78;7249044;19;152443;-59
2023/01/07 04:02:19;;;;;;;;;;;;;;;18.67;59.47;100372.94;7249581;19;153409;-59
2023/01/07 04:04:46;;;;;;;;;;;;;;;18.67;59.76;100367.34;7247939;19;154703;-59
2023/01/07 04:07:13;;;;;;;;;;;;;;;18.64;59.55;100356.78;7247502;19;152821;-59
2023/01/07 04:09:40;;;;;;;;;;;;;;;18.62;59.46;100378.63;7248587;19;154021;-59
2023/01/07 04:12:07;;;;;;;;;;;;;;;18.62;59.52;100361.84;7247714;19;154210;-59
2023/01/07 04:14:34;;;;;;;;;;;;;;;18.60;59.84;100343.72;7256645;19;153942;-59
2023/01/07 04:17:01;;;;;;;;;;;;;;;18.60;59.67;100347.38;7249074;19;155677;-59
2023/01/07 04:19:29;;;;;;;;;;;;;;;18.59;59.60;100350.47;7249263;19;153621;-59
2023/01/07 04:21:56;;;;;;;;;;;;;;;18.57;59.75;100325.59;7246804;19;155002;-60
2023/01/07 04:24:23;;;;;;;;;;;;;;;18.56;59.96;100329.53;7248310;19;154920;-59
2023/01/07 04:26:50;;;;;;;;;;;;;;;18.55;59.51;100307.47;7249746;19;153403;-59
2023/01/07 04:29:17;;;;;;;;;;;;;;;18.54;59.65;100308.59;7249028;19;153828;-60
2023/01/07 04:31:46;;;;;;;;;;;;;;;18.53;59.98;100323.75;7246279;19;154369;-59
2023/01/07 04:34:13;;;;;;;;;;;;;;;18.51;59.68;100312.81;7246536;19;152817;-59
2023/01/07 04:36:41;;;;;;;;;;;;;;;18.50;59.79;100296.34;7253323;19;152998;-58
2023/01/07 04:39:08;;;;;;;;;;;;;;;18.48;59.39;100299.47;7246216;19;153282;-58
2023/01/07 04:41:35;;;;;;;;;;;;;;;18.47;59.85;100297.81;7248623;19;154863;-58
2023/01/07 04:44:02;;;;;;;;;;;;;;;18.45;59.51;100299.22;7245151;19;153994;-59
2023/01/07 04:46:29;;;;;;;;;;;;;;;18.44;59.50;100286.41;7249251;19;152454;-59
2023/01/07 04:48:56;;;;;;;;;;;;;;;18.43;59.35;100270.75;7247821;19;153248;-59
2023/01/07 04:51:23;;;;;;;;;;;;;;;18.41;59.42;100262.66;7244152;19;153727;-59
2023/01/07 04:53:50;;;;;;;;;;;;;;;18.40;59.29;100249.00;7244614;19;152385;-59
2023/01/07 04:56:17;;;;;;;;;;;;;;;18.38;59.30;100260.50;7254405;19;154479;-59
2023/01/07 04:58:44;;;;;;;;;;;;;;;18.36;59.52;100250.75;7247646;19;152630;-59
2023/01/07 05:01:11;;;;;;;;;;;;;;;18.34;59.29;100245.50;7254726;19;154026;-59
2023/01/07 05:03:39;;;;;;;;;;;;;;;18.33;59.18;100249.41;7253970;19;155503;-59
2023/01/07 05:06:06;;;;;;;;;;;;;;;18.32;59.33;100230.16;7251633;19;152984;-59
2023/01/07 05:08:33;;;;;;;;;;;;;;;18.30;59.21;100229.66;7251381;19;155492;-59
2023/01/07 05:11:00;;;;;;;;;;;;;;;18.30;59.57;100224.06;7252960;19;156211;-58
2023/01/07 05:13:30;;;;;;;;;;;;;;;18.28;59.56;100234.69;7252169;19;154471;-59
2023/01/07 05:15:57;;;;;;;;;;;;;;;18.27;59.70;100219.06;7255454;19;154182;-59
2023/01/07 05:18:24;;;;;;;;;;;;;;;18.26;59.67;100214.63;7262961;19;154488;-58
2023/01/07 05:20:51;;;;;;;;;;;;;;;18.25;59.67;100210.16;7252491;19;153351;-59
2023/01/07 05:23:18;;;;;;;;;;;;;;;18.25;59.31;100215.75;7253417;19;154359;-59
2023/01/07 05:25:46;;;;;;;;;;;;;;;18.22;59.20;100208.81;7253223;19;153796;-58
2023/01/07 05:28:13;;;;;;;;;;;;;;;18.21;59.57;100204.38;7254909;19;153786;-58
2023/01/07 05:30:40;;;;;;;;;;;;;;;18.20;59.55;100214.72;7252315;19;154248;-58
2023/01/07 05:33:07;;;;;;;;;;;;;;;18.18;59.33;100203.00;7251307;19;154017;-58
2023/01/07 05:35:35;;;;;;;;;;;;;;;18.17;59.34;100204.16;7249984;19;154389;-59
2023/01/07 05:38:01;;;;;;;;;;;;;;;18.16;59.45;100196.94;7250975;19;153916;-59
2023/01/07 05:40:29;;;;;;;;;;;;;;;18.14;59.60;100190.81;7260320;19;154618;-59
2023/01/07 05:42:56;;;;;;;;;;;;;;;18.14;59.65;100182.41;7254896;19;153719;-59
2023/01/07 05:45:23;;;;;;;;;;;;;;;18.14;59.41;100184.38;7253378;19;153822;-58
2023/01/07 05:47:50;;;;;;;;;;;;;;;18.13;59.57;100174.34;7253937;19;153550;-58
2023/01/07 05:50:17;;;;;;;;;;;;;;;18.12;59.49;100164.31;7249544;19;154363;-59
2023/01/07 05:52:44;;;;;;;;;;;;;;;18.11;59.28;100154.25;7253111;19;153470;-59
2023/01/07 05:55:11;;;;;;;;;;;;;;;18.09;59.25;100168.53;7254803;19;154867;-59
2023/01/07 05:57:38;;;;;;;;;;;;;;;18.08;59.49;100158.50;7254108;19;154286;-60
2023/01/07 06:00:06;;;;;;;;;;;;;;;18.08;59.15;100157.69;7253331;19;153852;-59
2023/01/07 06:02:33;;;;;;;;;;;;;;;18.05;59.45;100144.31;7260436;19;154225;-59
2023/01/07 06:05:00;;;;;;;;;;;;;;;18.05;59.65;100152.69;7252741;19;153498;-59
2023/01/07 06:07:27;;;;;;;;;;;;;;;18.03;59.48;100136.25;7249897;19;154220;-59
2023/01/07 06:09:54;;;;;;;;;;;;;;;18.02;59.21;100140.19;7248791;19;152729;-59
2023/01/07 06:12:21;;;;;;;;;;;;;;;18.02;59.63;100137.41;7249128;19;154819;-58
2023/01/07 06:14:48;;;;;;;;;;;;;;;18.00;59.57;100131.28;7251531;19;154463;-59
2023/01/07 06:17:15;;;;;;;;;;;;;;;17.98;59.14;100136.38;7249187;19;152808;-58
2023/01/07 06:19:43;;;;;;;;;;;;;;;17.97;59.40;100131.06;7253913;19;153196;-59
2023/01/07 06:22:10;;;;;;;;;;;;;;;17.97;59.62;100117.94;7250592;19;154331;-59
2023/01/07 06:24:37;;;;;;;;;;;;;;;17.97;59.56;100140.28;7258667;19;153316;-59
2023/01/07 06:27:04;;;;;;;;;;;;;;;17.96;59.70;100115.44;7253060;19;154340;-58
2023/01/07 06:29:31;;;;;;;;;;;;;;;17.96;59.83;100118.25;7250090;19;153449;-59
2023/01/07 06:31:58;;;;;;;;;;;;;;;17.95;59.55;100109.03;7251214;19;153965;-59
2023/01/07 06:34:25;;;;;;;;;;;;;;;17.93;59.55;100116.91;7251626;19;154175;-59
2023/01/07 06:36:52;;;;;;;;;;;;;;;17.92;59.34;100114.41;7247534;19;153950;-59
2023/01/07 06:39:19;;;;;;;;;;;;;;;17.92;59.64;100123.63;7244751;19;154093;-59
2023/01/07 06:41:46;;;;;;;;;;;;;;;17.92;59.67;100095.69;7251387;19;154051;-59
2023/01/07 06:44:13;;;;;;;;;;;;;;;17.89;59.55;100087.94;7251663;19;155975;-59
2023/01/07 06:46:40;;;;;;;;;;;;;;;17.88;59.46;100102.19;7259463;19;153373;-59
2023/01/07 06:49:08;;;;;;;;;;;;;;;17.87;59.91;100101.38;7250875;19;155243;-59
2023/01/07 06:51:35;;;;;;;;;;;;;;;17.88;59.87;100085.44;7248813;19;152860;-60
2023/01/07 06:54:02;;;;;;;;;;;;;;;17.89;59.68;100070.34;7248632;19;153434;-59
2023/01/07 06:56:29;;;;;;;;;;;;;;;17.90;59.87;100061.63;7251007;19;155269;-59
2023/01/07 06:58:56;;;;;;;;;;;;;;;17.92;60.30;100055.72;7251111;19;154018;-59
2023/01/07 07:01:23;;;;;;;;;;;;;;;17.95;60.43;100057.88;7251216;19;153530;-59
2023/01/07 07:03:50;;;;;;;;;;;;;;;17.98;60.39;100058.09;7251160;19;154776;-58
2023/01/07 07:06:17;;;;;;;;;;;;;;;18.03;60.45;100049.63;7255616;19;153662;-59
2023/01/07 07:08:45;;;;;;;;;;;;;;;18.08;60.66;100040.28;7246804;19;154091;-59
2023/01/07 07:11:12;;;;;;;;;;;;;;;18.14;60.66;100034.25;7250619;19;153723;-60
2023/01/07 07:13:39;;;;;;;;;;;;;;;18.20;60.83;100030.22;7251966;19;153945;-59
2023/01/07 07:16:06;;;;;;;;;;;;;;;18.26;60.61;100018.91;7251347;19;153939;-59
2023/01/07 07:18:33;;;;;;;;;;;;;;;18.33;60.65;100019.28;7251333;19;154032;-59
2023/01/07 07:21:00;;;;;;;;;;;;;;;18.38;60.98;100011.59;7246433;19;153245;-59
2023/01/07 07:23:27;;;;;;;;;;;;;;;18.43;60.75;100007.84;7247373;19;154688;-59
2023/01/07 07:25:54;;;;;;;;;;;;;;;18.48;61.42;100013.34;7247151;19;154653;-59
2023/01/07 07:28:21;;;;;;;;;;;;;;;18.53;61.31;100002.06;7257106;19;154180;-59
2023/01/07 07:30:48;;;;;;;;;;;;;;;18.57;61.77;100012.28;7249904;19;153833;-60
2023/01/07 07:33:17;;;;;;;;;;;;;;;18.62;61.65;100002.94;7250934;19;153348;-59
2023/01/07 07:35:46;;;;;;;;;;;;;;;18.67;62.02;99999.97;7247403;19;153311;-59
2023/01/07 07:38:13;;;;;;;;;;;;;;;18.73;61.75;99978.31;7248019;19;154133;-60
2023/01/07 07:40:40;;;;;;;;;;;;;;;18.78;61.81;99990.19;7248918;19;153081;-59
2023/01/07 07:43:07;;;;;;;;;;;;;;;18.82;61.71;99977.22;7250748;19;153712;-59
2023/01/07 07:45:38;;;;;;;;;;;;;;;18.88;61.73;99978.72;7249553;19;153329;-59
2023/01/07 07:48:06;;;;;;;;;;;;;;;18.94;62.09;99968.22;7250434;19;154664;-59
2023/01/07 07:50:34;;;;;;;;;;;;;;;18.97;61.80;99960.00;7255038;19;155435;-59
2023/01/07 07:53:01;;;;;;;;;;;;;;;19.04;61.95;99959.53;7249600;19;152769;-59
2023/01/07 07:55:28;;;;;;;;;;;;;;;19.08;61.62;99943.72;7246517;19;154406;-59
2023/01/07 07:57:57;;;;;;;;;;;;;;;19.13;61.83;99946.41;7249901;19;154404;-59
2023/01/07 08:00:24;;;;;;;;;;;;;;;19.18;61.50;99949.06;7249808;19;156309;-59
2023/01/07 08:02:51;;;;;;;;;;;;;;;19.23;61.12;99940.50;7249585;19;155181;-59
2023/01/07 08:05:18;;;;;;;;;;;;;;;19.28;61.09;99925.53;7246892;19;154809;-59
2023/01/07 08:07:45;;;;;;;;;;;;;;;19.35;61.03;99931.50;7245940;19;153671;-58
2023/01/07 08:10:12;;;;;;;;;;;;;;;19.41;60.87;99910.56;7246892;19;153271;-59
2023/01/07 08:12:39;;;;;;;;;;;;;;;19.45;60.87;99920.84;7255876;19;153708;-59
2023/01/07 08:15:07;;;;;;;;;;;;;;;19.49;60.80;99921.00;7244377;19;155085;-59
2023/01/07 08:17:35;;;;;;;;;;;;;;;19.53;60.51;99920.00;7247789;19;153715;-59
2023/01/07 08:20:04;;;;;;;;;;;;;;;19.59;59.98;99914.25;7249831;19;154475;-59
2023/01/07 08:22:32;;;;;;;;;;;;;;;19.62;59.70;99905.22;7243845;19;155701;-59
2023/01/07 08:24:59;;;;;;;;;;;;;;;19.67;59.78;99913.47;7247630;19;152833;-59
2023/01/07 08:27:26;;;;;;;;;;;;;;;19.71;59.63;99894.84;7248145;19;153461;-59
2023/01/07 08:29:54;;;;;;;;;;;;;;;19.74;59.04;99896.97;7248339;19;154069;-59
2023/01/07 08:32:21;;;;;;;;;;;;;;;19.78;58.95;99889.56;7249333;19;154437;-59
2023/01/07 08:34:48;;;;;;;;;;;;;;;19.81;59.00;99883.28;7257190;19;153852;-59
2023/01/07 08:37:16;;;;;;;;;;;;;;;19.85;59.16;99884.31;7252545;19;155414;-59
2023/01/07 08:39:43;;;;;;;;;;;;;;;19.87;58.71;99880.00;7254968;19;153253;-59
2023/01/07 08:42:10;;;;;;;;;;;;;;;19.88;58.60;99876.06;7255290;19;153952;-58
2023/01/07 08:44:37;;;;;;;;;;;;;;;19.90;58.32;99868.13;7256756;19;153503;-59
2023/01/07 08:47:04;;;;;;;;;;;;;;;19.93;58.16;99872.25;7255048;19;153280;-59
2023/01/07 08:49:31;;;;;;;;;;;;;;;19.94;57.98;99863.50;7251838;19;153557;-59
2023/01/07 08:51:58;;;;;;;;;;;;;;;19.97;57.70;99853.63;7251629;19;153671;-59
2023/01/07 08:54:25;;;;;;;;;;;;;;;19.98;57.50;99853.28;7253351;19;153909;-60
2023/01/07 08:56:52;;;;;;;;;;;;;;;20.01;57.04;99854.59;7259581;19;153032;-60
2023/01/07 08:59:20;;;;;;;;;;;;;;;20.03;56.86;99855.09;7255468;19;154151;-60
2023/01/07 09:01:47;;;;;;;;;;;;;;;20.03;56.47;99843.88;7253797;19;154290;-59
2023/01/07 09:04:14;;;;;;;;;;;;;;;20.06;56.37;99839.59;7255695;19;154401;-58
2023/01/07 09:06:41;;;;;;;;;;;;;;;20.06;56.41;99817.97;7249648;19;154624;-59
2023/01/07 09:09:09;;;;;;;;;;;;;;;20.08;56.40;99824.06;7253824;19;154249;-58
2023/01/07 09:11:36;;;;;;;;;;;;;;;20.10;56.58;99820.94;7255682;19;154869;-59
2023/01/07 09:14:03;;;;;;;;;;;;;;;20.11;56.46;99806.59;7253474;19;153668;-59
2023/01/07 09:16:30;;;;;;;;;;;;;;;20.13;56.29;99823.88;7261284;19;153656;-58
2023/01/07 09:18:58;;;;;;;;;;;;;;;20.13;56.31;99815.47;7256527;19;153626;-59
2023/01/07 09:21:25;;;;;;;;;;;;;;;20.15;56.41;99801.13;7251937;19;153666;-59
2023/01/07 09:23:52;;;;;;;;;;;;;;;20.14;56.81;99800.31;7254659;19;153625;-58
2023/01/07 09:26:19;;;;;;;;;;;;;;;20.10;55.48;99812.53;7252462;19;154794;-58
2023/01/07 09:28:46;;;;;;;;;;;;;;;20.05;54.91;99807.91;7250476;19;154316;-58
2023/01/07 09:31:12;;;;;;;;;;;;;;;20.02;54.67;99799.34;7258094;19;153784;-58
2023/01/07 09:33:39;;;;;;;;;;;;;;;19.98;54.44;99799.19;7254081;19;153339;-58
2023/01/07 09:36:06;;;;;;;;;;;;;;;19.98;54.11;99794.41;7250488;19;153593;-58
2023/01/07 09:38:33;;;;;;;;;;;;;;;19.98;53.73;99799.19;7260941;19;153878;-58
2023/01/07 09:41:00;;;;;;;;;;;;;;;19.95;54.05;99797.88;7248958;19;153583;-58
2023/01/07 09:43:29;;;;;;;;;;;;;;;19.94;54.18;99796.22;7258157;19;153591;-58
2023/01/07 09:46:17;;;;;;;;;;;;;;;19.95;53.78;99785.81;7256628;19;158088;-58
2023/01/07 09:48:47;;;;;;;;;;;;;;;19.69;52.20;99794.28;7255179;19;154405;-58
2023/01/07 09:51:20;;;;;;;;;;;;;;;19.71;52.36;99788.34;7254639;19;154404;-58
2023/01/07 09:53:49;;;;;;;;;;;;;;;19.78;53.05;99802.69;7253678;19;153211;-58
2023/01/07 09:56:19;;;;;;;;;;;;;;;19.81;52.62;99799.19;7253572;19;153818;-58
2023/01/07 09:58:47;;;;;;;;;;;;;;;19.84;53.18;99798.56;7255078;19;153434;-58
2023/01/07 10:01:24;;;;;;;;;;;;;;;19.86;53.21;99796.22;7261928;19;153786;-58
2023/01/07 10:04:00;;;;;;;;;;;;;;;19.88;52.80;99803.16;7254730;19;154414;-58
2023/01/07 10:06:37;;;;;;;;;;;;;;;19.90;52.81;99777.59;7255017;19;153397;-58
2023/01/07 10:09:18;;;;;;;;;;;;;;;19.92;52.89;99773.31;7254727;19;154454;-58
2023/01/07 10:11:45;;;;;;;;;;;;;;;19.94;53.00;99776.59;7253489;19;154536;-58
2023/01/07 10:14:22;;;;;;;;;;;;;;;19.98;53.29;99788.81;7252688;19;155901;-59
2023/01/07 10:16:49;;;;;;;;;;;;;;;20.01;53.35;99781.69;7254556;19;153478;-58
2023/01/07 10:19:16;;;;;;;;;;;;;;;20.04;53.16;99772.63;7257326;19;154068;-58
2023/01/07 10:21:52;;;;;;;;;;;;;;;20.05;53.12;99777.06;7253325;19;153936;-59
2023/01/07 10:24:22;;;;;;;;;;;;;;;20.07;52.96;99768.34;7258007;19;155142;-58
2023/01/07 10:26:51;;;;;;;;;;;;;;;20.11;52.63;99783.34;7256686;19;153630;-58
2023/01/07 10:29:17;;;;;;;;;;;;;;;20.12;52.72;99768.16;7248938;19;155082;-58
2023/01/07 10:31:45;;;;;;;;;;;;;;;20.13;52.91;99762.19;7254140;19;152401;-58
2023/01/07 10:34:14;;;;;;;;;;;;;;;20.16;52.68;99760.72;7251086;19;154204;-58
2023/01/07 10:36:48;;;;;;;;;;;;;;;20.18;52.74;99764.00;7246580;19;152835;-58
2023/01/07 10:39:28;;;;;;;;;;;;;;;20.19;52.69;99760.88;7253378;19;153425;-58
2023/01/07 10:42:04;;;;;;;;;;;;;;;20.22;52.47;99745.34;7253395;19;155110;-58
2023/01/07 10:44:40;;;;;;;;;;;;;;;20.24;52.88;99746.66;7253108;19;154497;-58
2023/01/07 10:47:07;;;;;;;;;;;;;;;20.25;52.30;99751.13;7260609;19;152972;-58
2023/01/07 10:49:34;;;;;;;;;;;;;;;20.26;52.74;99735.91;7252662;19;154368;-58
2023/01/07 10:52:12;;;;;;;;;;;;;;;20.30;52.39;99734.13;7249006;19;154035;-60
2023/01/07 10:54:40;;;;;;;;;;;;;;;20.33;52.55;99721.41;7249665;19;154087;-58
2023/01/07 10:57:14;;;;;;;;;;;;;;;20.36;52.38;99737.56;7250548;19;153213;-58
2023/01/07 10:59:46;;;;;;;;;;;;;;;20.36;52.30;99727.16;7254710;19;153444;-58
2023/01/07 11:02:15;;;;;;;;;;;;;;;20.38;52.15;99716.44;7252752;19;153548;-58
2023/01/07 11:04:42;;;;;;;;;;;;;;;20.39;51.64;99718.09;7251109;19;153936;-59
2023/01/07 11:07:13;;;;;;;;;;;;;;;20.40;51.70;99708.50;7258003;19;153685;-59
2023/01/07 11:09:41;;;;;;;;;;;;;;;20.42;51.70;99694.13;7249587;19;153538;-58
2023/01/07 11:12:18;;;;;;;;;;;;;;;20.42;51.46;99703.38;7255463;19;152531;-58
2023/01/07 11:14:45;;;;;;;;;;;;;;;20.45;51.50;99684.22;7252008;19;153868;-58
2023/01/07 11:17:12;;;;;;;;;;;;;;;20.44;51.25;99683.41;7245522;19;154779;-58
2023/01/07 11:19:41;;;;;;;;;;;;;;;20.46;51.47;99683.88;7255313;19;153924;-59
2023/01/07 11:22:26;;;;;;;;;;;;;;;20.46;51.32;99683.06;7249232;19;154764;-58
2023/01/07 11:24:55;;;;;;;;;;;;;;;20.47;51.35;99685.53;7253307;19;154052;-58
2023/01/07 11:27:23;;;;;;;;;;;;;;;20.51;52.23;99668.84;7252980;19;153353;-58
2023/01/07 11:29:59;;;;;;;;;;;;;;;20.53;51.65;99680.56;7259499;19;154548;-59
2023/01/07 11:32:27;;;;;;;;;;;;;;;20.53;51.65;99672.97;7255016;19;153038;-59
2023/01/07 11:34:56;;;;;;;;;;;;;;;20.55;51.25;99673.44;7250585;19;153294;-59
2023/01/07 11:37:30;;;;;;;;;;;;;;;20.57;51.05;99667.47;7249208;19;154552;-59
2023/01/07 11:39:58;;;;;;;;;;;;;;;20.59;51.29;99660.34;7249630;19;153146;-58
2023/01/07 11:45:21;;;;;;;;;;;;;;;20.62;51.34;99665.31;7251231;19;153197;-58
2023/01/07 11:47:49;;;;;;;;;;;;;;;20.66;50.63;99645.78;7251946;19;153801;-59
2023/01/07 11:50:20;;;;;;;;;;;;;;;20.66;50.85;99632.59;7250724;19;153929;-58
2023/01/07 11:52:57;;;;;;;;;;;;;;;20.67;50.63;99637.00;7256315;19;153476;-58
2023/01/07 11:55:24;;;;;;;;;;;;;;;20.69;50.99;99633.88;7249931;19;153290;-59
2023/01/07 11:57:52;;;;;;;;;;;;;;;20.71;50.72;99621.16;7250321;19;153202;-59
2023/01/07 12:00:39;;;;;;;;;;;;;;;20.73;50.64;99620.81;7251785;19;152000;-58
2023/01/07 12:03:11;;;;;;;;;;;;;;;20.74;50.93;99623.28;7252188;19;154695;-58
2023/01/07 12:05:39;;;;;;;;;;;;;;;20.76;50.69;99629.34;7245802;19;153860;-58
2023/01/07 12:08:06;;;;;;;;;;;;;;;20.78;50.88;99607.38;7249932;19;153745;-58
2023/01/07 12:10:35;;;;;;;;;;;;;;;20.80;50.42;99609.88;7258020;19;154628;-59
2023/01/07 12:13:04;;;;;;;;;;;;;;;20.81;50.30;99600.25;7235836;19;153793;-58
2023/01/07 12:15:33;;;;;;;;;;;;;;;20.82;50.43;99602.72;7256598;19;153249;-59
2023/01/07 12:18:01;;;;;;;;;;;;;;;20.85;50.49;99595.59;7254721;19;153573;-59
2023/01/07 12:20:34;;;;;;;;;;;;;;;20.86;50.11;99583.19;7254217;19;152752;-59
2023/01/07 12:23:01;;;;;;;;;;;;;;;20.87;50.38;99579.25;7256888;19;153845;-59
2023/01/07 12:25:29;;;;;;;;;;;;;;;20.88;50.17;99572.47;7256101;19;155173;-59
2023/01/07 12:28:08;;;;;;;;;;;;;;;20.89;50.15;99568.50;7256935;19;152885;-59
2023/01/07 12:30:42;;;;;;;;;;;;;;;20.89;50.21;99550.81;7257436;19;153157;-59
2023/01/07 12:33:19;;;;;;;;;;;;;;;20.90;49.77;99541.22;7254325;19;153169;-58
2023/01/07 12:35:46;;;;;;;;;;;;;;;20.90;49.91;99536.44;7253110;19;153181;-59
2023/01/07 12:38:24;;;;;;;;;;;;;;;20.91;49.82;99531.63;7262906;19;154921;-59
2023/01/07 12:40:54;;;;;;;;;;;;;;;20.91;49.67;99509.16;7256317;19;153693;-59
2023/01/07 12:43:24;;;;;;;;;;;;;;;20.90;49.97;99538.41;7258009;19;154057;-59